sensor_id;sensor_type;location;lat;lon;timestamp;pressure;altitude;pressure_sealevel;temperature;humidity
77979;BME280;67169;50.268;8.694;2023-05-18T00:02:26;100581.88;;;7.01;64.66
77979;BME280;67169;50.268;8.694;2023-05-18T00:04:52;100593.56;;;6.91;64.82
77979;BME280;67169;50.268;8.694;2023-05-18T00:07:19;100589.06;;;6.96;64.70
77979;BME280;67169;50.268;8.694;2023-05-18T00:09:45;100582.88;;;6.91;64.57
77979;BME280;67169;50.268;8.694;2023-05-18T00:12:13;100588.25;;;6.89;65.72
77979;BME280;67169;50.268;8.694;2023-05-18T00:14:40;100581.06;;;6.93;65.30
77979;BME280;67169;50.268;8.694;2023-05-18T00:17:06;100583.81;;;6.87;65.00
77979;BME280;67169;50.268;8.694;2023-05-18T00:19:32;100581.22;;;6.78;65.21
77979;BME280;67169;50.268;8.694;2023-05-18T00:22:00;100549.28;;;6.62;65.24
77979;BME280;67169;50.268;8.694;2023-05-18T00:24:27;100575.00;;;6.76;65.96
77979;BME280;67169;50.268;8.694;2023-05-18T00:26:54;100567.94;;;6.69;65.44
77979;BME280;67169;50.268;8.694;2023-05-18T00:29:22;100574.09;;;6.78;65.59
77979;BME280;67169;50.268;8.694;2023-05-18T00:31:48;100572.38;;;6.71;65.46
77979;BME280;67169;50.268;8.694;2023-05-18T00:34:15;100581.28;;;6.72;66.76
77979;BME280;67169;50.268;8.694;2023-05-18T00:36:42;100579.50;;;6.71;66.14
77979;BME280;67169;50.268;8.694;2023-05-18T00:39:08;100582.13;;;6.77;65.39
77979;BME280;67169;50.268;8.694;2023-05-18T00:41:35;100575.94;;;6.72;66.38
77979;BME280;67169;50.268;8.694;2023-05-18T00:44:02;100575.09;;;6.63;66.10
77979;BME280;67169;50.268;8.694;2023-05-18T00:46:31;100572.41;;;6.66;66.13
77979;BME280;67169;50.268;8.694;2023-05-18T00:48:58;100574.22;;;6.64;66.08
77979;BME280;67169;50.268;8.694;2023-05-18T00:51:26;100572.44;;;6.63;65.50
77979;BME280;67169;50.268;8.694;2023-05-18T00:53:54;100571.56;;;6.60;67.29
77979;BME280;67169;50.268;8.694;2023-05-18T00:56:22;100568.03;;;6.59;66.36
77979;BME280;67169;50.268;8.694;2023-05-18T00:58:49;100573.41;;;6.53;67.35
77979;BME280;67169;50.268;8.694;2023-05-18T01:01:18;100574.31;;;6.52;66.45
77979;BME280;67169;50.268;8.694;2023-05-18T01:03:46;100568.97;;;6.55;66.73
77979;BME280;67169;50.268;8.694;2023-05-18T01:06:12;100570.84;;;6.39;66.89
77979;BME280;67169;50.268;8.694;2023-05-18T01:08:39;100567.31;;;6.39;66.82
77979;BME280;67169;50.268;8.694;2023-05-18T01:11:14;100563.78;;;6.37;67.23
77979;BME280;67169;50.268;8.694;2023-05-18T01:13:53;100569.16;;;6.34;67.24
77979;BME280;67169;50.268;8.694;2023-05-18T01:16:26;100572.66;;;6.36;66.85
77979;BME280;67169;50.268;8.694;2023-05-18T01:19:02;100572.72;;;6.31;67.61
77979;BME280;67169;50.268;8.694;2023-05-18T01:21:38;100566.50;;;6.29;67.65
77979;BME280;67169;50.268;8.694;2023-05-18T01:24:22;100550.56;;;6.17;67.19
77979;BME280;67169;50.268;8.694;2023-05-18T01:26:51;100521.31;;;6.03;67.49
77979;BME280;67169;50.268;8.694;2023-05-18T01:29:24;100568.25;;;6.35;66.85
77979;BME280;67169;50.268;8.694;2023-05-18T01:31:50;100578.09;;;6.30;67.41
77979;BME280;67169;50.268;8.694;2023-05-18T01:34:17;100572.78;;;6.24;67.84
77979;BME280;67169;50.268;8.694;2023-05-18T01:36:43;100572.78;;;6.19;67.90
77979;BME280;67169;50.268;8.694;2023-05-18T01:39:10;100567.47;;;6.21;67.82
77979;BME280;67169;50.268;8.694;2023-05-18T01:41:40;100573.66;;;6.23;68.12
77979;BME280;67169;50.268;8.694;2023-05-18T01:44:14;100564.88;;;6.10;68.16
77979;BME280;67169;50.268;8.694;2023-05-18T01:46:48;100570.22;;;6.10;68.59
77979;BME280;67169;50.268;8.694;2023-05-18T01:49:24;100576.44;;;6.10;68.74
77979;BME280;67169;50.268;8.694;2023-05-18T01:51:53;100580.03;;;6.03;69.68
77979;BME280;67169;50.268;8.694;2023-05-18T01:54:21;100577.41;;;5.97;69.34
77979;BME280;67169;50.268;8.694;2023-05-18T01:56:51;100572.97;;;5.99;68.76
77979;BME280;67169;50.268;8.694;2023-05-18T01:59:22;100576.53;;;5.95;69.20
77979;BME280;67169;50.268;8.694;2023-05-18T02:01:49;100574.75;;;5.88;69.54
77979;BME280;67169;50.268;8.694;2023-05-18T02:04:16;100575.69;;;5.78;69.75
77979;BME280;67169;50.268;8.694;2023-05-18T02:06:43;100573.91;;;5.80;70.89
77979;BME280;67169;50.268;8.694;2023-05-18T02:09:09;100579.28;;;5.75;71.23
77979;BME280;67169;50.268;8.694;2023-05-18T02:11:36;100577.50;;;5.71;70.13
77979;BME280;67169;50.268;8.694;2023-05-18T02:14:02;100571.34;;;5.64;71.16
77979;BME280;67169;50.268;8.694;2023-05-18T02:16:31;100573.13;;;5.62;71.53
77979;BME280;67169;50.268;8.694;2023-05-18T02:18:57;100574.03;;;5.64;70.31
77979;BME280;67169;50.268;8.694;2023-05-18T02:21:24;100574.03;;;5.61;70.52
77979;BME280;67169;50.268;8.694;2023-05-18T02:23:51;100566.94;;;5.53;70.49
77979;BME280;67169;50.268;8.694;2023-05-18T02:26:17;100569.63;;;5.50;71.40
77979;BME280;67169;50.268;8.694;2023-05-18T02:28:44;100566.97;;;5.45;71.49
77979;BME280;67169;50.268;8.694;2023-05-18T02:31:10;100561.66;;;5.39;71.91
77979;BME280;67169;50.268;8.694;2023-05-18T02:33:39;100567.88;;;5.45;72.20
77979;BME280;67169;50.268;8.694;2023-05-18T02:36:09;100573.19;;;5.47;72.72
77979;BME280;67169;50.268;8.694;2023-05-18T02:38:36;100568.75;;;5.46;72.07
77979;BME280;67169;50.268;8.694;2023-05-18T02:41:03;100571.41;;;5.46;71.35
77979;BME280;67169;50.268;8.694;2023-05-18T02:43:30;100566.06;;;5.49;71.57
77979;BME280;67169;50.268;8.694;2023-05-18T02:45:56;100566.97;;;5.46;71.53
77979;BME280;67169;50.268;8.694;2023-05-18T02:48:23;100570.53;;;5.39;70.92
77979;BME280;67169;50.268;8.694;2023-05-18T02:50:51;100566.97;;;5.43;71.70
77979;BME280;67169;50.268;8.694;2023-05-18T02:53:18;100556.34;;;5.37;71.83
77979;BME280;67169;50.268;8.694;2023-05-18T02:55:44;100567.84;;;5.47;71.15
77979;BME280;67169;50.268;8.694;2023-05-18T02:58:12;100562.56;;;5.44;71.93
77979;BME280;67169;50.268;8.694;2023-05-18T03:00:38;100559.88;;;5.42;71.58
77979;BME280;67169;50.268;8.694;2023-05-18T03:03:05;100568.81;;;5.34;71.89
77979;BME280;67169;50.268;8.694;2023-05-18T03:05:35;100571.50;;;5.31;72.38
77979;BME280;67169;50.268;8.694;2023-05-18T03:08:03;100566.16;;;5.31;71.84
77979;BME280;67169;50.268;8.694;2023-05-18T03:10:29;100578.59;;;5.22;72.37
77979;BME280;67169;50.268;8.694;2023-05-18T03:12:56;100570.63;;;5.21;72.88
77979;BME280;67169;50.268;8.694;2023-05-18T03:15:22;100570.59;;;5.26;72.10
77979;BME280;67169;50.268;8.694;2023-05-18T03:17:49;100566.16;;;5.31;72.02
77979;BME280;67169;50.268;8.694;2023-05-18T03:20:16;100569.69;;;5.30;72.38
77979;BME280;67169;50.268;8.694;2023-05-18T03:22:44;100562.59;;;5.22;72.57
77979;BME280;67169;50.268;8.694;2023-05-18T03:25:11;100569.75;;;5.20;72.75
77979;BME280;67169;50.268;8.694;2023-05-18T03:27:39;100575.03;;;5.30;72.01
77979;BME280;67169;50.268;8.694;2023-05-18T03:30:06;100568.81;;;5.29;72.33
77979;BME280;67169;50.268;8.694;2023-05-18T03:32:33;100566.16;;;5.28;72.30
77979;BME280;67169;50.268;8.694;2023-05-18T03:35:01;100569.69;;;5.33;71.57
77979;BME280;67169;50.268;8.694;2023-05-18T03:37:28;100568.81;;;5.32;71.91
77979;BME280;67169;50.268;8.694;2023-05-18T03:39:58;100569.75;;;5.23;72.55
77979;BME280;67169;50.268;8.694;2023-05-18T03:42:26;100563.47;;;5.32;72.13
77979;BME280;67169;50.268;8.694;2023-05-18T03:44:53;100568.81;;;5.31;73.30
77979;BME280;67169;50.268;8.694;2023-05-18T03:47:19;100571.50;;;5.28;72.75
77979;BME280;67169;50.268;8.694;2023-05-18T03:49:46;100575.06;;;5.20;72.59
77979;BME280;67169;50.268;8.694;2023-05-18T03:52:12;100572.41;;;5.19;72.51
77979;BME280;67169;50.268;8.694;2023-05-18T03:54:46;100575.06;;;5.22;73.61
77979;BME280;67169;50.268;8.694;2023-05-18T03:57:13;100582.19;;;5.15;73.04
77979;BME280;67169;50.268;8.694;2023-05-18T03:59:41;100572.44;;;5.13;73.79
77979;BME280;67169;50.268;8.694;2023-05-18T04:02:08;100571.50;;;5.31;72.60
77979;BME280;67169;50.268;8.694;2023-05-18T04:04:35;100578.59;;;5.35;72.07
77979;BME280;67169;50.268;8.694;2023-05-18T04:07:02;100582.16;;;5.24;73.00
77979;BME280;67169;50.268;8.694;2023-05-18T04:09:30;100579.53;;;5.20;73.19
77979;BME280;67169;50.268;8.694;2023-05-18T04:11:56;100583.94;;;5.22;73.41
77979;BME280;67169;50.268;8.694;2023-05-18T04:14:23;100583.06;;;5.19;73.54
77979;BME280;67169;50.268;8.694;2023-05-18T04:16:53;100586.66;;;5.16;73.63
77979;BME280;67169;50.268;8.694;2023-05-18T04:19:20;100581.28;;;5.22;73.30
77979;BME280;67169;50.268;8.694;2023-05-18T04:21:48;100582.16;;;5.28;73.71
77979;BME280;67169;50.268;8.694;2023-05-18T04:24:14;100585.69;;;5.33;73.67
77979;BME280;67169;50.268;8.694;2023-05-18T04:26:41;100591.91;;;5.38;73.22
77979;BME280;67169;50.268;8.694;2023-05-18T04:29:08;100538.66;;;5.12;72.64
77979;BME280;67169;50.268;8.694;2023-05-18T04:31:35;100597.19;;;5.50;73.33
77979;BME280;67169;50.268;8.694;2023-05-18T04:34:03;100598.06;;;5.58;72.93
77979;BME280;67169;50.268;8.694;2023-05-18T04:36:29;100599.81;;;5.65;72.40
77979;BME280;67169;50.268;8.694;2023-05-18T04:38:56;100595.28;;;5.77;71.65
77979;BME280;67169;50.268;8.694;2023-05-18T04:41:24;100589.03;;;5.78;71.45
77979;BME280;67169;50.268;8.694;2023-05-18T04:43:51;100594.34;;;5.87;71.64
77979;BME280;67169;50.268;8.694;2023-05-18T04:46:18;100575.72;;;5.73;71.13
77979;BME280;67169;50.268;8.694;2023-05-18T04:48:46;100598.75;;;5.99;70.60
77979;BME280;67169;50.268;8.694;2023-05-18T04:51:15;100604.06;;;6.05;70.89
77979;BME280;67169;50.268;8.694;2023-05-18T04:53:45;100600.47;;;6.10;70.14
77979;BME280;67169;50.268;8.694;2023-05-18T04:56:14;100608.38;;;6.26;70.64
77979;BME280;67169;50.268;8.694;2023-05-18T04:58:41;100598.53;;;6.32;70.54
77979;BME280;67169;50.268;8.694;2023-05-18T05:01:10;100615.38;;;6.44;70.03
77979;BME280;67169;50.268;8.694;2023-05-18T05:03:36;100612.63;;;6.53;69.46
77979;BME280;67169;50.268;8.694;2023-05-18T05:06:03;100605.50;;;6.55;69.33
77979;BME280;67169;50.268;8.694;2023-05-18T05:08:31;100612.59;;;6.57;68.67
77979;BME280;67169;50.268;8.694;2023-05-18T05:10:59;100604.50;;;6.66;69.12
77979;BME280;67169;50.268;8.694;2023-05-18T05:13:25;100605.38;;;6.67;69.10
77979;BME280;67169;50.268;8.694;2023-05-18T05:15:52;100607.94;;;6.78;69.42
77979;BME280;67169;50.268;8.694;2023-05-18T05:18:19;100599.78;;;6.92;69.14
77979;BME280;67169;50.268;8.694;2023-05-18T05:20:45;100601.56;;;6.96;68.18
77979;BME280;67169;50.268;8.694;2023-05-18T05:23:12;100609.41;;;7.12;67.49
77979;BME280;67169;50.268;8.694;2023-05-18T05:25:40;100602.34;;;7.04;68.35
77979;BME280;67169;50.268;8.694;2023-05-18T05:28:06;100598.63;;;7.19;67.51
77979;BME280;67169;50.268;8.694;2023-05-18T05:30:33;100595.97;;;7.16;67.57
77979;BME280;67169;50.268;8.694;2023-05-18T05:32:59;100604.72;;;7.34;68.32
77979;BME280;67169;50.268;8.694;2023-05-18T05:35:25;100600.94;;;7.49;67.28
77979;BME280;67169;50.268;8.694;2023-05-18T05:37:52;100596.47;;;7.51;66.83
77979;BME280;67169;50.268;8.694;2023-05-18T05:40:18;100607.16;;;7.54;66.49
77979;BME280;67169;50.268;8.694;2023-05-18T05:42:47;100602.56;;;7.63;66.35
77979;BME280;67169;50.268;8.694;2023-05-18T05:45:13;100610.59;;;7.63;65.64
77979;BME280;67169;50.268;8.694;2023-05-18T05:47:40;100610.59;;;7.63;65.88
77979;BME280;67169;50.268;8.694;2023-05-18T05:50:07;100605.25;;;7.63;65.51
77979;BME280;67169;50.268;8.694;2023-05-18T05:52:33;100608.66;;;7.74;65.89
77979;BME280;67169;50.268;8.694;2023-05-18T05:55:00;100610.34;;;7.82;65.09
77979;BME280;67169;50.268;8.694;2023-05-18T05:57:26;100605.97;;;7.78;65.04
77979;BME280;67169;50.268;8.694;2023-05-18T05:59:54;100610.22;;;7.93;64.20
77979;BME280;67169;50.268;8.694;2023-05-18T06:02:21;100610.84;;;8.12;64.09
77979;BME280;67169;50.268;8.694;2023-05-18T06:04:47;100617.19;;;8.06;64.78
77979;BME280;67169;50.268;8.694;2023-05-18T06:07:14;100620.53;;;8.21;63.12
77979;BME280;67169;50.268;8.694;2023-05-18T06:09:41;100618.22;;;8.56;63.35
77979;BME280;67169;50.268;8.694;2023-05-18T06:12:08;100614.66;;;8.58;62.46
77979;BME280;67169;50.268;8.694;2023-05-18T06:14:35;100617.50;;;8.45;62.37
77979;BME280;67169;50.268;8.694;2023-05-18T06:17:03;100612.97;;;8.50;62.02
77979;BME280;67169;50.268;8.694;2023-05-18T06:19:29;100617.16;;;8.67;61.16
77979;BME280;67169;50.268;8.694;2023-05-18T06:21:56;100612.84;;;8.58;61.62
77979;BME280;67169;50.268;8.694;2023-05-18T06:24:22;100598.25;;;8.76;61.31
77979;BME280;67169;50.268;8.694;2023-05-18T06:26:49;100608.38;;;9.10;60.97
77979;BME280;67169;50.268;8.694;2023-05-18T06:29:16;100615.19;;;9.29;61.46
77979;BME280;67169;50.268;8.694;2023-05-18T06:31:42;100614.25;;;9.30;60.92
77979;BME280;67169;50.268;8.694;2023-05-18T06:34:10;100618.47;;;9.43;60.51
77979;BME280;67169;50.268;8.694;2023-05-18T06:36:37;100624.72;;;9.42;60.61
77979;BME280;67169;50.268;8.694;2023-05-18T06:39:04;100623.97;;;9.37;60.52
77979;BME280;67169;50.268;8.694;2023-05-18T06:41:31;100621.22;;;9.40;60.24
77979;BME280;67169;50.268;8.694;2023-05-18T06:43:58;100623.97;;;9.37;60.11
77979;BME280;67169;50.268;8.694;2023-05-18T06:46:26;100623.03;;;9.38;60.11
77979;BME280;67169;50.268;8.694;2023-05-18T06:48:53;100624.94;;;9.32;60.44
77979;BME280;67169;50.268;8.694;2023-05-18T06:51:21;100626.63;;;9.37;60.15
77979;BME280;67169;50.268;8.694;2023-05-18T06:53:47;100621.81;;;9.55;58.95
77979;BME280;67169;50.268;8.694;2023-05-18T06:56:14;100630.41;;;9.72;58.45
77979;BME280;67169;50.268;8.694;2023-05-18T06:58:41;100619.44;;;9.84;58.42
77979;BME280;67169;50.268;8.694;2023-05-18T07:01:08;100612.78;;;10.01;59.01
77979;BME280;67169;50.268;8.694;2023-05-18T07:03:35;100561.88;;;9.54;58.46
77979;BME280;67169;50.268;8.694;2023-05-18T07:06:02;100626.56;;;10.27;58.60
77979;BME280;67169;50.268;8.694;2023-05-18T07:08:31;100613.53;;;10.48;58.29
77979;BME280;67169;50.268;8.694;2023-05-18T07:10:58;100632.84;;;10.65;58.41
77979;BME280;67169;50.268;8.694;2023-05-18T07:13:26;100633.41;;;10.78;57.04
77979;BME280;67169;50.268;8.694;2023-05-18T07:15:53;100628.72;;;10.86;57.26
77979;BME280;67169;50.268;8.694;2023-05-18T07:18:19;100632.28;;;10.86;56.76
77979;BME280;67169;50.268;8.694;2023-05-18T07:20:46;100634.75;;;10.96;57.03
77979;BME280;67169;50.268;8.694;2023-05-18T07:23:12;100638.97;;;10.70;57.62
77979;BME280;67169;50.268;8.694;2023-05-18T07:25:40;100636.47;;;10.62;57.33
77979;BME280;67169;50.268;8.694;2023-05-18T07:28:07;100632.88;;;10.99;57.03
77979;BME280;67169;50.268;8.694;2023-05-18T07:30:34;100637.66;;;11.22;57.22
77979;BME280;67169;50.268;8.694;2023-05-18T07:33:00;100622.81;;;11.38;56.49
77979;BME280;67169;50.268;8.694;2023-05-18T07:35:27;100625.69;;;11.00;56.48
77979;BME280;67169;50.268;8.694;2023-05-18T07:37:53;100615.09;;;11.26;56.41
77979;BME280;67169;50.268;8.694;2023-05-18T07:40:20;100626.88;;;11.87;57.05
77979;BME280;67169;50.268;8.694;2023-05-18T07:42:48;100632.84;;;11.97;56.25
77979;BME280;67169;50.268;8.694;2023-05-18T07:45:14;100630.91;;;12.02;54.55
77979;BME280;67169;50.268;8.694;2023-05-18T07:47:41;100599.91;;;11.87;53.52
77979;BME280;67169;50.268;8.694;2023-05-18T07:50:08;100623.22;;;11.57;54.66
77979;BME280;67169;50.268;8.694;2023-05-18T07:52:35;100624.69;;;11.36;54.75
77979;BME280;67169;50.268;8.694;2023-05-18T07:55:02;100616.91;;;12.19;54.88
77979;BME280;67169;50.268;8.694;2023-05-18T07:57:28;100609.50;;;12.54;54.09
77979;BME280;67169;50.268;8.694;2023-05-18T07:59:56;100606.56;;;12.62;52.50
77979;BME280;67169;50.268;8.694;2023-05-18T08:02:23;100612.53;;;12.71;53.16
77979;BME280;67169;50.268;8.694;2023-05-18T08:04:49;100604.84;;;12.59;55.46
77979;BME280;67169;50.268;8.694;2023-05-18T08:07:17;100602.13;;;12.87;55.15
77979;BME280;67169;50.268;8.694;2023-05-18T08:09:45;100613.31;;;13.01;53.50
77979;BME280;67169;50.268;8.694;2023-05-18T08:12:12;100606.53;;;13.41;53.66
77979;BME280;67169;50.268;8.694;2023-05-18T08:14:38;100614.91;;;13.34;50.31
77979;BME280;67169;50.268;8.694;2023-05-18T08:17:06;100613.44;;;13.50;49.37
77979;BME280;67169;50.268;8.694;2023-05-18T08:19:33;100606.22;;;13.74;49.89
77979;BME280;67169;50.268;8.694;2023-05-18T08:22:01;100601.59;;;13.77;52.20
77979;BME280;67169;50.268;8.694;2023-05-18T08:24:27;100603.81;;;13.90;50.98
77979;BME280;67169;50.268;8.694;2023-05-18T08:26:54;100601.69;;;14.21;50.95
77979;BME280;67169;50.268;8.694;2023-05-18T08:29:21;100602.88;;;14.14;49.79
77979;BME280;67169;50.268;8.694;2023-05-18T08:31:49;100600.66;;;14.24;48.88
77979;BME280;67169;50.268;8.694;2023-05-18T08:34:17;100603.53;;;14.43;48.57
77979;BME280;67169;50.268;8.694;2023-05-18T08:36:44;100599.75;;;14.25;48.88
77979;BME280;67169;50.268;8.694;2023-05-18T08:39:11;100595.97;;;14.53;47.72
77979;BME280;67169;50.268;8.694;2023-05-18T08:41:42;100598.44;;;14.79;49.09
77979;BME280;67169;50.268;8.694;2023-05-18T08:44:15;100593.31;;;14.28;50.17
77979;BME280;67169;50.268;8.694;2023-05-18T08:46:44;100595.84;;;14.56;50.00
77979;BME280;67169;50.268;8.694;2023-05-18T08:49:16;100596.19;;;14.68;49.18
77979;BME280;67169;50.268;8.694;2023-05-18T08:51:47;100563.69;;;15.11;47.55
77979;BME280;67169;50.268;8.694;2023-05-18T08:54:19;100590.94;;;15.69;47.48
77979;BME280;67169;50.268;8.694;2023-05-18T08:56:46;100592.59;;;15.51;47.72
77979;BME280;67169;50.268;8.694;2023-05-18T08:59:15;100583.66;;;15.70;47.47
77979;BME280;67169;50.268;8.694;2023-05-18T09:01:44;100581.78;;;15.90;44.76
77979;BME280;67169;50.268;8.694;2023-05-18T09:04:13;100574.28;;;15.77;46.98
77979;BME280;67169;50.268;8.694;2023-05-18T09:06:45;100557.28;;;15.53;47.02
77979;BME280;67169;50.268;8.694;2023-05-18T09:09:13;100567.53;;;15.66;46.72
77979;BME280;67169;50.268;8.694;2023-05-18T09:11:40;100566.38;;;16.29;44.36
77979;BME280;67169;50.268;8.694;2023-05-18T09:14:07;100563.56;;;16.30;45.52
77979;BME280;67169;50.268;8.694;2023-05-18T09:16:34;100568.00;;;16.14;45.94
77979;BME280;67169;50.268;8.694;2023-05-18T09:19:03;100546.41;;;16.30;45.46
77979;BME280;67169;50.268;8.694;2023-05-18T09:21:30;100556.09;;;16.17;42.91
77979;BME280;67169;50.268;8.694;2023-05-18T09:23:59;100564.31;;;15.96;45.58
77979;BME280;67169;50.268;8.694;2023-05-18T09:26:26;100562.19;;;16.77;46.49
77979;BME280;67169;50.268;8.694;2023-05-18T09:28:55;100555.41;;;16.85;41.14
77979;BME280;67169;50.268;8.694;2023-05-18T09:31:23;100560.06;;;16.65;44.54
77979;BME280;67169;50.268;8.694;2023-05-18T09:33:51;100556.28;;;17.38;41.69
77979;BME280;67169;50.268;8.694;2023-05-18T09:36:23;100555.09;;;16.92;42.21
77979;BME280;67169;50.268;8.694;2023-05-18T09:38:50;100556.09;;;17.24;42.01
77979;BME280;67169;50.268;8.694;2023-05-18T09:41:18;100550.66;;;17.59;41.18
77979;BME280;67169;50.268;8.694;2023-05-18T09:43:47;100531.44;;;17.44;39.42
77979;BME280;67169;50.268;8.694;2023-05-18T09:46:17;100546.94;;;17.77;41.55
77979;BME280;67169;50.268;8.694;2023-05-18T09:48:46;100541.34;;;18.12;40.37
77979;BME280;67169;50.268;8.694;2023-05-18T09:51:14;100540.38;;;18.13;40.44
77979;BME280;67169;50.268;8.694;2023-05-18T09:53:47;100544.44;;;17.72;41.57
77979;BME280;67169;50.268;8.694;2023-05-18T09:56:16;100544.47;;;16.87;41.99
77979;BME280;67169;50.268;8.694;2023-05-18T09:58:44;100542.22;;;16.95;40.50
77979;BME280;67169;50.268;8.694;2023-05-18T10:01:11;100536.84;;;17.62;39.72
77979;BME280;67169;50.268;8.694;2023-05-18T10:03:37;100535.09;;;17.61;41.41
77979;BME280;67169;50.268;8.694;2023-05-18T10:06:06;100533.94;;;17.82;40.05
77979;BME280;67169;50.268;8.694;2023-05-18T10:08:34;100530.84;;;17.39;41.62
77979;BME280;67169;50.268;8.694;2023-05-18T10:11:04;100526.53;;;18.17;39.40
77979;BME280;67169;50.268;8.694;2023-05-18T10:13:32;100530.41;;;18.75;39.47
77979;BME280;67169;50.268;8.694;2023-05-18T10:16:02;100466.56;;;18.49;35.28
77979;BME280;67169;50.268;8.694;2023-05-18T10:18:33;100452.63;;;17.27;37.53
77979;BME280;67169;50.268;8.694;2023-05-18T10:21:01;100527.00;;;17.76;39.29
77979;BME280;67169;50.268;8.694;2023-05-18T10:23:31;100512.50;;;18.55;40.99
77979;BME280;67169;50.268;8.694;2023-05-18T10:25:58;100521.16;;;18.32;39.11
77979;BME280;67169;50.268;8.694;2023-05-18T10:28:29;100515.63;;;19.09;38.85
77979;BME280;67169;50.268;8.694;2023-05-18T10:30:57;100504.84;;;19.22;40.18
77979;BME280;67169;50.268;8.694;2023-05-18T10:33:26;100505.22;;;19.30;36.60
77979;BME280;67169;50.268;8.694;2023-05-18T10:35:53;100513.50;;;19.14;38.20
77979;BME280;67169;50.268;8.694;2023-05-18T10:38:21;100503.00;;;18.62;37.78
77979;BME280;67169;50.268;8.694;2023-05-18T10:40:50;100507.53;;;18.32;38.75
77979;BME280;67169;50.268;8.694;2023-05-18T10:43:19;100503.91;;;17.50;37.37
77979;BME280;67169;50.268;8.694;2023-05-18T10:45:51;100500.09;;;18.03;39.93
77979;BME280;67169;50.268;8.694;2023-05-18T10:48:19;100501.88;;;18.96;40.73
77979;BME280;67169;50.268;8.694;2023-05-18T10:50:48;100492.38;;;19.18;35.86
77979;BME280;67169;50.268;8.694;2023-05-18T10:53:17;100491.66;;;19.00;37.27
77979;BME280;67169;50.268;8.694;2023-05-18T10:55:45;100498.81;;;19.60;36.18
77979;BME280;67169;50.268;8.694;2023-05-18T10:58:15;100500.19;;;19.81;36.54
77979;BME280;67169;50.268;8.694;2023-05-18T11:00:48;100492.59;;;19.86;35.37
77979;BME280;67169;50.268;8.694;2023-05-18T11:03:16;100499.34;;;18.93;36.92
77979;BME280;67169;50.268;8.694;2023-05-18T11:05:43;100495.41;;;18.83;37.60
77979;BME280;67169;50.268;8.694;2023-05-18T11:08:23;100493.06;;;19.50;35.24
77979;BME280;67169;50.268;8.694;2023-05-18T11:10:58;100500.50;;;19.77;34.21
77979;BME280;67169;50.268;8.694;2023-05-18T11:13:28;100488.13;;;20.27;35.93
77979;BME280;67169;50.268;8.694;2023-05-18T11:16:04;100488.72;;;19.76;33.15
77979;BME280;67169;50.268;8.694;2023-05-18T11:18:39;100482.06;;;19.37;31.29
77979;BME280;67169;50.268;8.694;2023-05-18T11:21:29;100475.81;;;19.78;32.50
77979;BME280;67169;50.268;8.694;2023-05-18T11:24:23;100480.19;;;19.95;32.49
77979;BME280;67169;50.268;8.694;2023-05-18T11:26:51;100470.53;;;19.61;33.20
77979;BME280;67169;50.268;8.694;2023-05-18T11:29:21;100471.66;;;20.14;35.50
77979;BME280;67169;50.268;8.694;2023-05-18T11:31:51;100474.28;;;20.43;33.77
77979;BME280;67169;50.268;8.694;2023-05-18T11:34:43;100465.75;;;20.74;31.78
77979;BME280;67169;50.268;8.694;2023-05-18T11:39:39;100462.47;;;21.35;30.45
77979;BME280;67169;50.268;8.694;2023-05-18T11:42:08;100452.03;;;21.14;31.99
77979;BME280;67169;50.268;8.694;2023-05-18T11:44:35;100444.09;;;20.71;32.17
77979;BME280;67169;50.268;8.694;2023-05-18T11:47:06;100447.22;;;21.05;34.79
77979;BME280;67169;50.268;8.694;2023-05-18T11:49:36;100446.34;;;21.17;33.83
77979;BME280;67169;50.268;8.694;2023-05-18T11:52:12;100439.31;;;21.64;31.92
77979;BME280;67169;50.268;8.694;2023-05-18T11:54:44;100445.44;;;21.68;31.80
77979;BME280;67169;50.268;8.694;2023-05-18T11:57:13;100447.34;;;21.42;30.90
77979;BME280;67169;50.268;8.694;2023-05-18T11:59:41;100446.34;;;21.43;29.52
77979;BME280;67169;50.268;8.694;2023-05-18T12:02:08;100442.09;;;21.13;28.88
77979;BME280;67169;50.268;8.694;2023-05-18T12:04:42;100450.09;;;21.42;29.81
77979;BME280;67169;50.268;8.694;2023-05-18T12:07:10;100443.72;;;21.28;30.87
77979;BME280;67169;50.268;8.694;2023-05-18T12:09:40;100454.00;;;20.99;31.86
77979;BME280;67169;50.268;8.694;2023-05-18T12:12:09;100443.56;;;20.66;31.68
77979;BME280;67169;50.268;8.694;2023-05-18T12:14:37;100441.75;;;21.18;32.09
77979;BME280;67169;50.268;8.694;2023-05-18T12:17:05;100436.94;;;21.47;32.32
77979;BME280;67169;50.268;8.694;2023-05-18T12:19:41;100432.72;;;21.79;31.01
77979;BME280;67169;50.268;8.694;2023-05-18T12:22:08;100441.16;;;21.76;30.46
77979;BME280;67169;50.268;8.694;2023-05-18T12:24:35;100425.94;;;21.85;31.08
77979;BME280;67169;50.268;8.694;2023-05-18T12:27:02;100438.31;;;20.36;33.59
77979;BME280;67169;50.268;8.694;2023-05-18T12:29:33;100411.91;;;19.11;34.10
77979;BME280;67169;50.268;8.694;2023-05-18T12:32:04;100425.13;;;19.60;32.40
77979;BME280;67169;50.268;8.694;2023-05-18T12:34:31;100430.31;;;20.06;36.21
77979;BME280;67169;50.268;8.694;2023-05-18T12:36:58;100417.66;;;20.84;34.88
77979;BME280;67169;50.268;8.694;2023-05-18T12:39:24;100419.06;;;21.54;33.21
77979;BME280;67169;50.268;8.694;2023-05-18T12:41:51;100417.69;;;22.57;31.27
77979;BME280;67169;50.268;8.694;2023-05-18T12:44:17;100422.22;;;22.10;30.91
77979;BME280;67169;50.268;8.694;2023-05-18T12:46:46;100409.47;;;20.72;29.86
77979;BME280;67169;50.268;8.694;2023-05-18T12:49:13;100420.69;;;20.67;34.32
77979;BME280;67169;50.268;8.694;2023-05-18T12:51:42;100387.00;;;20.54;32.99
77979;BME280;67169;50.268;8.694;2023-05-18T12:54:08;100418.44;;;20.47;32.76
77979;BME280;67169;50.268;8.694;2023-05-18T12:56:49;100418.31;;;21.26;33.18
77979;BME280;67169;50.268;8.694;2023-05-18T12:59:16;100405.97;;;22.44;31.45
77979;BME280;67169;50.268;8.694;2023-05-18T13:01:45;100406.94;;;22.19;30.55
77979;BME280;67169;50.268;8.694;2023-05-18T13:04:12;100402.00;;;22.24;30.83